地図

経路データ

SID SEASON NUMBER BASIN SUBBASIN NAME ISO_TIME NATURE LAT LON WMO_WIND WMO_PRES WMO_AGENCY TRACK_TYPE DIST2LAND LANDFALL IFLAG USA_AGENCY USA_ATCF_ID USA_LAT USA_LON USA_RECORD USA_STATUS USA_WIND USA_PRES USA_SSHS USA_R34_NE USA_R34_SE USA_R34_SW USA_R34_NW USA_R50_NE USA_R50_SE USA_R50_SW USA_R50_NW USA_R64_NE USA_R64_SE USA_R64_SW USA_R64_NW USA_POCI USA_ROCI USA_RMW USA_EYE TOKYO_LAT TOKYO_LON TOKYO_GRADE TOKYO_WIND TOKYO_PRES TOKYO_R50_DIR TOKYO_R50_LONG TOKYO_R50_SHORT TOKYO_R30_DIR TOKYO_R30_LONG TOKYO_R30_SHORT TOKYO_LAND CMA_LAT CMA_LON CMA_CAT CMA_WIND CMA_PRES HKO_LAT HKO_LON HKO_CAT HKO_WIND HKO_PRES NEWDELHI_LAT NEWDELHI_LON NEWDELHI_GRADE NEWDELHI_WIND NEWDELHI_PRES NEWDELHI_CI NEWDELHI_DP NEWDELHI_POCI REUNION_LAT REUNION_LON REUNION_TYPE REUNION_WIND REUNION_PRES REUNION_TNUM REUNION_CI REUNION_RMW REUNION_R34_NE REUNION_R34_SE REUNION_R34_SW REUNION_R34_NW REUNION_R50_NE REUNION_R50_SE REUNION_R50_SW REUNION_R50_NW REUNION_R64_NE REUNION_R64_SE REUNION_R64_SW REUNION_R64_NW BOM_LAT BOM_LON BOM_TYPE BOM_WIND BOM_PRES BOM_TNUM BOM_CI BOM_RMW BOM_R34_NE BOM_R34_SE BOM_R34_SW BOM_R34_NW BOM_R50_NE BOM_R50_SE BOM_R50_SW BOM_R50_NW BOM_R64_NE BOM_R64_SE BOM_R64_SW BOM_R64_NW BOM_ROCI BOM_POCI BOM_EYE BOM_POS_METHOD BOM_PRES_METHOD NADI_LAT NADI_LON NADI_CAT NADI_WIND NADI_PRES WELLINGTON_LAT WELLINGTON_LON WELLINGTON_WIND WELLINGTON_PRES DS824_LAT DS824_LON DS824_STAGE DS824_WIND DS824_PRES TD9636_LAT TD9636_LON TD9636_STAGE TD9636_WIND TD9636_PRES TD9635_LAT TD9635_LON TD9635_WIND TD9635_PRES TD9635_ROCI NEUMANN_LAT NEUMANN_LON NEUMANN_CLASS NEUMANN_WIND NEUMANN_PRES MLC_LAT MLC_LON MLC_CLASS MLC_WIND MLC_PRES USA_GUST BOM_GUST BOM_GUST_PER REUNION_GUST REUNION_GUST_PER USA_SEAHGT USA_SEARAD_NE USA_SEARAD_SE USA_SEARAD_SW USA_SEARAD_NW STORM_SPEED STORM_DIR
1911003S15138 1911 1 SP EA NOT_NAMED 1911-01-02 23:00:00 NR -14.7000 138.400 bom main 157 157 ______O_______ -1 -14.7000 138.400 2 0
1911003S15138 1911 1 SP EA NOT_NAMED 1911-01-03 00:00:00 TS -14.7235 138.411 main 157 157 ______P__O____ -1 -14.7353 138.417 -14.7000 138.400 TC 2 145
1911003S15138 1911 1 SP EA NOT_NAMED 1911-01-03 03:00:00 TS -14.8171 138.485 main 170 168 ______P__P____ -1 -14.8413 138.467 -14.7808 138.513 TC 2 142
1911003S15138 1911 1 SP EA NOT_NAMED 1911-01-03 06:00:00 TS -14.9119 138.564 main 174 165 ______P__P____ -1 -14.9482 138.519 -14.8635 138.624 TC 2 139
1911003S15138 1911 1 SP EA NOT_NAMED 1911-01-03 09:00:00 TS -15.0032 138.652 main 171 163 ______P__P____ -1 -15.0566 138.574 -14.9498 138.731 TC 3 139
1911003S15138 1911 1 SP EA NOT_NAMED 1911-01-03 12:00:00 TS -15.1043 138.732 main 163 162 ______P__P____ -1 -15.1670 138.632 -15.0417 138.833 TC 3 144
1911003S15138 1911 1 SP EA NOT_NAMED 1911-01-03 15:00:00 TS -15.2105 138.811 main 162 154 ______P__P____ -1 -15.2802 138.696 -15.1409 138.926 TC 3 145
1911003S15138 1911 1 SP EA NOT_NAMED 1911-01-03 18:00:00 TS -15.3230 138.888 main 163 156 ______P__P____ -1 -15.3967 138.766 -15.2494 139.010 TC 3 147
1911003S15138 1911 1 SP EA NOT_NAMED 1911-01-03 21:00:00 TS -15.4431 138.963 main 162 151 ______P__P____ -1 -15.5172 138.844 -15.3690 139.083 TC 3 150
1911003S15138 1911 1 SP EA NOT_NAMED 1911-01-03 23:00:00 TS -15.5280 139.012 bom main 151 140 ______O__P____ -1 -15.6000 138.900 -15.4559 139.123 TC 3 151
1911003S15138 1911 1 SP EA NOT_NAMED 1911-01-04 00:00:00 TS -15.5720 139.035 main 140 134 ______P__P____ -1 -15.6423 138.930 -15.5017 139.141 TC 3 153
1911003S15138 1911 1 SP EA NOT_NAMED 1911-01-04 03:00:00 TS -15.7114 139.102 main 134 113 ______P__P____ -1 -15.7736 139.020 -15.6492 139.184 TC 3 157
1911003S15138 1911 1 SP EA NOT_NAMED 1911-01-04 06:00:00 TS -15.8641 139.157 main 113 102 ______P__P____ -1 -15.9146 139.104 -15.8136 139.210 TC 3 164
1911003S15138 1911 1 SP EA NOT_NAMED 1911-01-04 09:00:00 TS -16.0325 139.192 main 102 81 ______P__P____ -1 -16.0685 139.168 -15.9965 139.216 TC 4 173
1911003S15138 1911 1 SP EA NOT_NAMED 1911-01-04 12:00:00 TS -16.2195 139.199 main 81 70 ______P__O____ -1 -16.2389 139.199 -16.2000 139.200 TC 4 0
1911003S15138 1911 1 SP EA NOT_NAMED 1911-01-04 13:00:00 TS -16.2863 139.195 bom main 70 59 ______O__P____ -1 -16.3000 139.200 -16.2726 139.190 TC 4 183
1911003S15138 1911 1 SP EA NOT_NAMED 1911-01-04 15:00:00 TS -16.4286 139.172 main 59 35 ______P__P____ -1 -16.4337 139.181 -16.4234 139.163 TC 5 192
1911003S15138 1911 1 SP EA NOT_NAMED 1911-01-04 18:00:00 TS -16.6518 139.117 main 24 10 ______P__P____ -1 -16.6473 139.123 -16.6564 139.111 TC 5 195
1911003S15138 1911 1 SP EA NOT_NAMED 1911-01-04 21:00:00 TS -16.8745 139.051 main 10 0 ______P__P____ -1 -16.8628 139.049 -16.8862 139.053 TC 5 197
1911003S15138 1911 1 SP EA NOT_NAMED 1911-01-04 23:00:00 TS -17.0156 139.008 996 bom main 0 0 ______O__P____ -1 -17.0000 139.000 996 4 -17.0313 139.017 TC 4 196
1911003S15138 1911 1 SP EA NOT_NAMED 1911-01-05 00:00:00 TS -17.0824 138.990 main 0 0 ______P__O____ -1 -17.0647 138.980 -17.1000 139.000 TC 35 996 4 196
1911003S15138 1911 1 SP EA NOT_NAMED 1911-01-05 03:00:00 TS -17.2681 138.941 main 0 0 ______P__P____ -1 -17.2501 138.920 -17.2861 138.962 TC 4 194
1911003S15138 1911 1 SP EA NOT_NAMED 1911-01-05 06:00:00 TS -17.4368 138.899 main 0 0 ______P__P____ -1 -17.4214 138.866 -17.4522 138.932 TC 3 193
1911003S15138 1911 1 SP EA NOT_NAMED 1911-01-05 09:00:00 TS -17.5885 138.867 main 0 0 ______P__P____ -1 -17.5774 138.825 -17.5996 138.908 TC 3 190
1911003S15138 1911 1 SP EA NOT_NAMED 1911-01-05 12:00:00 TS -17.7232 138.847 main 0 0 ______P__P____ -1 -17.7168 138.802 -17.7295 138.892 TC 3 187
1911003S15138 1911 1 SP EA NOT_NAMED 1911-01-05 14:00:00 TS -17.8035 138.842 bom main 0 0 ______O__P____ -1 -17.8000 138.800 -17.8070 138.885 TC 2 0
1911003S15138 1911 1 SP EA NOT_NAMED 1911-01-05 15:00:00 TS -17.8422 138.843 main 0 0 ______P__P____ -1 -17.8412 138.804 -17.8432 138.883 TC 2 0
1911003S15138 1911 1 SP EA NOT_NAMED 1911-01-05 18:00:00 TS -17.9472 138.855 main 0 0 ______P__P____ -1 -17.9524 138.830 -17.9420 138.881 TC 2 169
1911003S15138 1911 1 SP EA NOT_NAMED 1911-01-05 21:00:00 TS -18.0367 138.878 main 0 0 ______P__P____ -1 -18.0462 138.870 -18.0272 138.887 TC 2 163
1911003S15138 1911 1 SP EA NOT_NAMED 1911-01-05 23:00:00 TS -18.0885 138.897 bom main 0 0 ______O__P____ -1 -18.1000 138.900 -18.0770 138.895 TC 2 165
1911003S15138 1911 1 SP EA NOT_NAMED 1911-01-06 00:00:00 TS -18.1132 138.905 main 0 0 ______P__O____ -1 -18.1264 138.910 -18.1000 138.900 TC 1 168
1911003S15138 1911 1 SP EA NOT_NAMED 1911-01-06 03:00:00 TS -18.1833 138.925 main 0 0 ______P__P____ -1 -18.1947 138.940 -18.1719 138.911 TC 1 163
1911003S15138 1911 1 SP EA NOT_NAMED 1911-01-06 06:00:00 TS -18.2389 138.949 main 0 0 ______P__P____ -1 -18.2485 138.969 -18.2293 138.930 TC 1 152
1911003S15138 1911 1 SP EA NOT_NAMED 1911-01-06 09:00:00 TS -18.2824 138.977 main 0 0 ______P__P____ -1 -18.2903 138.999 -18.2745 138.956 TC 1 143
1911003S15138 1911 1 SP EA NOT_NAMED 1911-01-06 12:00:00 TS -18.3162 139.011 main 0 0 ______P__P____ -1 -18.3226 139.031 -18.3099 138.990 TC 1 133
1911003S15138 1911 1 SP EA NOT_NAMED 1911-01-06 15:00:00 TS -18.3428 139.050 main 0 0 ______P__P____ -1 -18.3479 139.068 -18.3378 139.031 TC 1 123
1911003S15138 1911 1 SP EA NOT_NAMED 1911-01-06 18:00:00 TS -18.3646 139.096 main 0 0 ______P__P____ -1 -18.3686 139.111 -18.3605 139.080 TC 1 113
1911003S15138 1911 1 SP EA NOT_NAMED 1911-01-06 21:00:00 TS -18.3839 139.149 main 0 0 ______P__P____ -1 -18.3874 139.162 -18.3805 139.136 TC 1 109
1911003S15138 1911 1 SP EA NOT_NAMED 1911-01-06 23:00:00 TS -18.3967 139.189 bom main 0 0 ______O__P____ -1 -18.4000 139.200 -18.3934 139.178 TC 1 112
1911003S15138 1911 1 SP EA NOT_NAMED 1911-01-07 00:00:00 TS -18.4045 139.211 main 0 0 ______P__O____ -1 -18.4090 139.221 -18.4000 139.200 TC 1 110
1911003S15138 1911 1 SP EA NOT_NAMED 1911-01-07 03:00:00 TS -18.4298 139.278 main 0 0 ______P__P____ -1 -18.4338 139.291 -18.4258 139.265 TC 1 110
1911003S15138 1911 1 SP EA NOT_NAMED 1911-01-07 06:00:00 TS -18.4528 139.354 main 0 0 ______P__P____ -1 -18.4565 139.369 -18.4491 139.338 TC 2 107
1911003S15138 1911 1 SP EA NOT_NAMED 1911-01-07 09:00:00 TS -18.4745 139.436 main 0 0 ______P__P____ -1 -18.4781 139.453 -18.4709 139.419 TC 2 105
1911003S15138 1911 1 SP EA NOT_NAMED 1911-01-07 12:00:00 TS -18.4962 139.524 main 0 0 ______P__P____ -1 -18.4999 139.543 -18.4925 139.505 TC 2 105
1911003S15138 1911 1 SP EA NOT_NAMED 1911-01-07 15:00:00 TS -18.5190 139.617 main 0 0 ______P__P____ -1 -18.5230 139.637 -18.5150 139.597 TC 2 105
1911003S15138 1911 1 SP EA NOT_NAMED 1911-01-07 18:00:00 TS -18.5441 139.714 main 0 0 ______P__P____ -1 -18.5486 139.734 -18.5397 139.695 TC 2 106
1911003S15138 1911 1 SP EA NOT_NAMED 1911-01-07 21:00:00 TS -18.5727 139.815 main 0 0 ______P__P____ -1 -18.5779 139.833 -18.5676 139.796 TC 2 107
1911003S15138 1911 1 SP EA NOT_NAMED 1911-01-07 23:00:00 TS -18.5943 139.882 bom main 0 0 ______O__P____ -1 -18.6000 139.900 -18.5886 139.865 TC 2 111
1911003S15138 1911 1 SP EA NOT_NAMED 1911-01-08 00:00:00 TS -18.6070 139.909 main 0 0 ______P__O____ -1 -18.6140 139.919 -18.6000 139.900 TC 1 125
1911003S15138 1911 1 SP EA NOT_NAMED 1911-01-08 03:00:00 TS -18.6499 139.965 main 0 0 ______P__P____ -1 -18.6597 139.970 -18.6400 139.959 TC 1 131
1911003S15138 1911 1 SP EA NOT_NAMED 1911-01-08 06:00:00 TS -18.6969 140.019 main 0 0 ______P__P____ -1 -18.7095 140.021 -18.6843 140.018 TC 1 131
1911003S15138 1911 1 SP EA NOT_NAMED 1911-01-08 09:00:00 TS -18.7470 140.082 main 0 0 ______P__P____ -1 -18.7620 140.080 -18.7320 140.083 TC 2 128
1911003S15138 1911 1 SP EA NOT_NAMED 1911-01-08 12:00:00 TS -18.7992 140.159 main 0 0 ______P__P____ -1 -18.8159 140.155 -18.7826 140.163 TC 2 122
1911003S15138 1911 1 SP EA NOT_NAMED 1911-01-08 15:00:00 TS -18.8525 140.261 main 0 0 ______P__P____ -1 -18.8695 140.254 -18.8354 140.267 TC 2 115
1911003S15138 1911 1 SP EA NOT_NAMED 1911-01-08 18:00:00 TS -18.9056 140.394 main 0 0 ______P__P____ -1 -18.9214 140.386 -18.8898 140.402 TC 3 110
1911003S15138 1911 1 SP EA NOT_NAMED 1911-01-08 21:00:00 TS -18.9575 140.568 main 0 0 ______P__P____ -1 -18.9701 140.558 -18.9449 140.577 TC 4 106
1911003S15138 1911 1 SP EA NOT_NAMED 1911-01-08 23:00:00 TS -18.9908 140.710 bom main 0 0 ______O__P____ -1 -19.0000 140.700 -18.9817 140.720 TC 4 97
1911003S15138 1911 1 SP EA NOT_NAMED 1911-01-09 00:00:00 TS -18.9791 140.771 main 0 0 ______P__O____ -1 -18.9582 140.741 -19.0000 140.800 TC 4 70
1911003S15138 1911 1 SP EA NOT_NAMED 1911-01-09 03:00:00 TS -18.8908 140.997 main 0 0 ______P__P____ -1 -18.8048 140.878 -18.9769 141.116 TC 5 68
1911003S15138 1911 1 SP EA NOT_NAMED 1911-01-09 06:00:00 TS -18.7914 141.267 main 0 0 ______P__P____ -1 -18.6382 141.050 -18.9445 141.484 TC 6 72
1911003S15138 1911 1 SP EA NOT_NAMED 1911-01-09 09:00:00 TS -18.7064 141.583 main 0 0 ______P__P____ -1 -18.4951 141.278 -18.9178 141.889 TC 7 79
1911003S15138 1911 1 SP EA NOT_NAMED 1911-01-09 12:00:00 TS -18.6618 141.950 main 0 0 ______P__P____ -1 -18.4117 141.582 -18.9118 142.317 TC 7 88
1911003S15138 1911 1 SP EA NOT_NAMED 1911-01-09 15:00:00 TS -18.6831 142.370 main 0 0 ______P__P____ -1 -18.4244 141.984 -18.9417 142.756 TC 9 99
1911003S15138 1911 1 SP EA NOT_NAMED 1911-01-09 18:00:00 TS -18.7959 142.848 main 0 0 ______P__P____ -1 -18.5691 142.504 -19.0227 143.191 TC 10 110
1911003S15138 1911 1 SP EA NOT_NAMED 1911-01-09 21:00:00 TS -19.0259 143.389 main 0 0 ______P__P____ -1 -18.8814 143.167 -19.1703 143.610 TC 12 117
1911003S15138 1911 1 SP EA NOT_NAMED 1911-01-09 23:00:00 TS -19.2567 143.787 bom main 0 0 ______O__P____ -1 -19.2000 143.700 -19.3133 143.874 TC 14 123
1911003S15138 1911 1 SP EA NOT_NAMED 1911-01-10 00:00:00 TS -19.3994 144.004 main 0 0 ______P__O____ -1 -19.3988 144.009 -19.4000 144.000 TC 15 128
1911003S15138 1911 1 SP EA NOT_NAMED 1911-01-10 01:00:00 TS -19.5621 144.206 bom main 0 0 ______O__P____ -1 -19.6000 144.300 -19.5242 144.113 TC 14 134
1911003S15138 1911 1 SP EA NOT_NAMED 1911-01-10 03:00:00 TS -19.8737 144.525 main 0 0 ______P__P____ -1 -19.9405 144.719 -19.8070 144.331 TC 12 142
1911003S15138 1911 1 SP EA NOT_NAMED 1911-01-10 06:00:00 TS -20.3380 144.845 main 0 0 ______P__P____ -1 -20.3730 145.047 -20.3031 144.642 TC 11 152
1911003S15138 1911 1 SP EA NOT_NAMED 1911-01-10 09:00:00 TS -20.8312 145.067 bom main 0 0 ______O__P____ -1 -20.8000 145.200 -20.8623 144.934 TC 12 157
1911003S15138 1911 1 SP EA NOT_NAMED 1911-01-10 12:00:00 TS -21.4193 145.334 main 0 0 ______P__P____ -1 -21.3796 145.461 -21.4589 145.206 TC 13 159
1911003S15138 1911 1 SP EA NOT_NAMED 1911-01-10 15:00:00 TS -22.0394 145.567 main 0 0 ______P__P____ -1 -22.0119 145.675 -22.0669 145.460 TC 13 162
1911003S15138 1911 1 SP EA NOT_NAMED 1911-01-10 18:00:00 TS -22.6553 145.774 main 0 0 ______P__P____ -1 -22.6502 145.854 -22.6604 145.693 TC 13 163
1911003S15138 1911 1 SP EA NOT_NAMED 1911-01-10 21:00:00 TS -23.2305 145.957 main 0 0 ______P__P____ -1 -23.2476 146.007 -23.2133 145.907 TC 12 164
1911003S15138 1911 1 SP EA NOT_NAMED 1911-01-10 23:00:00 TS -23.5734 146.069 bom main 0 0 ______O__P____ -1 -23.6000 146.100 -23.5467 146.038 TC 10 163
1911003S15138 1911 1 SP EA NOT_NAMED 1911-01-11 00:00:00 TS -23.6944 146.121 main 0 0 ______P__O____ -1 -23.6888 146.141 -23.7000 146.100 TC 7 157
1911003S15138 1911 1 SP EA NOT_NAMED 1911-01-11 03:00:00 TS -23.9747 146.257 main 0 0 ______P__P____ -1 -23.8486 146.242 -24.1008 146.273 TC 5 153
1911003S15138 1911 1 SP EA NOT_NAMED 1911-01-11 06:00:00 TS -24.1587 146.373 main 0 0 ______P__P____ -1 -23.8962 146.319 -24.4211 146.426 TC 4 147
1911003S15138 1911 1 SP EA NOT_NAMED 1911-01-11 09:00:00 TS -24.2827 146.475 main 0 0 ______P__P____ -1 -23.8928 146.387 -24.6726 146.564 TC 3 141
1911003S15138 1911 1 SP EA NOT_NAMED 1911-01-11 12:00:00 TS -24.3832 146.573 main 0 0 ______P__P____ -1 -23.8996 146.459 -24.8668 146.688 TC 3 140
1911003S15138 1911 1 SP EA NOT_NAMED 1911-01-11 15:00:00 TS -24.4965 146.675 main 0 0 ______P__P____ -1 -23.9777 146.550 -25.0152 146.801 TC 3 144
1911003S15138 1911 1 SP EA NOT_NAMED 1911-01-11 18:00:00 TS -24.6588 146.790 main 0 0 ______P__P____ -1 -24.1884 146.675 -25.1292 146.905 TC 4 149
1911003S15138 1911 1 SP EA NOT_NAMED 1911-01-11 21:00:00 TS -24.8616 146.915 main 0 0 ______P__P____ -1 -24.5926 146.849 -25.2203 147.004 TC 6 154
1911003S15138 1911 1 SP EA NOT_NAMED 1911-01-11 23:00:00 TS -25.0913 147.023 bom main 0 0 ______O__P____ -1 -25.0000 147.000 -25.2740 147.068 TC 9 158
1911003S15138 1911 1 SP EA NOT_NAMED 1911-01-12 00:00:00 TS -25.2607 147.090 main 0 0 ______P__O____ -1 -25.2509 147.088 -25.3000 147.100 TC 17 163
1911003S15138 1911 1 SP EA NOT_NAMED 1911-01-12 03:00:00 NR -26.1639 147.395 main 0 0 ______P_______ -1 -26.1639 147.395 TC 21 163
1911003S15138 1911 1 SP EA NOT_NAMED 1911-01-12 06:00:00 NR -27.2406 147.749 main 0 0 ______P_______ -1 -27.2406 147.749 TC 23 164
1911003S15138 1911 1 SP EA NOT_NAMED 1911-01-12 08:00:00 NR -28.0000 148.000 bom main 0 ______O_______ -1 -28.0000 148.000 TC 24 164

デジタル台風データ・検索

IBTrACS Databaseについて

本データベースは、米国NOAAが公開する1842年以降の世界の熱帯低気圧のベストトラックデータアーカイブInternational Best Track Archive for Climate Stewardship (IBTrACS)を、ウェブで閲覧しやすい形式に変換したものです。

最終更新日:2021-11-26